Mr Wayne — WDF5912 — position and weather

sailwx.info

Track history (hours):
 
Tides and Currents Weather Stations Pressure Air Temp Water Temp Dewpoint Dewpoint Depression Visibility Wind Speed Wind Dir Waves Ship Positions

Mr Wayne

Owner: Crosby Marine Transportation LLC, Golden Meadow, LA. More information available from US FCC via Universal Licensing System and Coast Guard Vessel Documentation Center.

Last reported at 2018-Feb-08 01:16 UTC. Time now 2018-Feb-19 08:06 UTC.
Position N 29°33' W 090°24'.
Warning: this ship's position is 11 days out of date.

Length 20 m; draft 2.8 m.

Type: Towing. MMSI: 367468610.

Date/timePositionNaut miles runAvg speedWind from/ knotsBaromVisibWave heightAir tempDewpointWater temp
2018-Feb-08 01:16N 29°33' W 090°24'4 3.0
2018-Feb-07 23:55N 29°34' W 090°29'3 7.1
2018-Feb-07 23:30N 29°34' W 090°32'3 6.9
2018-Feb-07 23:00N 29°35' W 090°36'3 5.9
2018-Feb-07 22:28N 29°36' W 090°39'1 2.5
2018-Feb-07 22:00N 29°36' W 090°40'0 0.0
2018-Feb-07 21:31N 29°36' W 090°40'  
2018-Feb-03 23:05N 29°34' W 090°30'1 6.1
2018-Feb-03 23:00N 29°34' W 090°30'3 5.9
2018-Feb-03 22:31N 29°34' W 090°33'3 5.2
2018-Feb-03 22:00N 29°35' W 090°36'2 3.0
2018-Feb-03 21:29N 29°35' W 090°38'3 5.3
2018-Feb-03 21:00N 29°36' W 090°41'2 3.6
2018-Feb-03 20:30N 29°36' W 090°43'2 2.9
2018-Feb-03 19:59N 29°34' W 090°43'4 2.9
2018-Feb-03 18:31N 29°30' W 090°43'3 5.6
2018-Feb-03 18:01N 29°27' W 090°43'3 5.2
2018-Feb-03 17:30N 29°25' W 090°44'0 0.0
2018-Feb-03 08:18N 29°24' W 090°44'2 6.0
2018-Feb-03 08:00N 29°26' W 090°43'8 5.2
2018-Feb-03 06:28N 29°34' W 090°43'3 5.7
2018-Feb-03 06:00N 29°37' W 090°42'3 6.4
2018-Feb-03 05:30N 29°35' W 090°39'4 6.3
2018-Feb-03 04:54N 29°34' W 090°34'9 0.4
2018-Feb-02 03:33N 29°33' W 090°24'0 7.6
2018-Feb-02 03:30N 29°33' W 090°24'4 7.6
2018-Feb-02 03:00N 29°34' W 090°28'4 7.7
2018-Feb-02 02:31N 29°34' W 090°33'4 6.9
2018-Feb-02 01:59N 29°35' W 090°37'3 7.2
2018-Feb-02 01:30N 29°36' W 090°40'0 0.1
2018-Feb-02 01:00N 29°36' W 090°40'2 3.9
2018-Feb-02 00:30N 29°36' W 090°43'3 6.6
2018-Feb-02 00:00N 29°33' W 090°42'4 7.3
2018-Feb-01 23:30N 29°29' W 090°43'4 7.3
2018-Feb-01 23:00N 29°26' W 090°43'1 0.2
2018-Feb-01 17:07N 29°24' W 090°44'1 5.7
2018-Feb-01 17:00N 29°25' W 090°43'3 5.8
2018-Feb-01 16:30N 29°28' W 090°43'3 5.8
2018-Feb-01 16:00N 29°31' W 090°43'2 4.9
2018-Feb-01 15:30N 29°33' W 090°42'1 2.3
2018-Feb-01 14:59N 29°34' W 090°43'7 4.5
2018-Feb-01 13:30N 29°32' W 090°50'3 5.5
2018-Feb-01 12:58N 29°33' W 090°54'3 5.7
2018-Feb-01 12:30N 29°34' W 090°56'6 0.2
2018-Jan-30 21:19N 29°32' W 090°50'3 6.1
2018-Jan-30 20:48N 29°32' W 090°46'2 5.5
2018-Jan-30 20:30N 29°33' W 090°45'2 4.0
2018-Jan-30 20:00N 29°34' W 090°43'2 4.1
2018-Jan-30 19:30N 29°36' W 090°43'2 4.1
2018-Jan-30 19:00N 29°36' W 090°40'2 4.5
2018-Jan-30 18:30N 29°35' W 090°38'3 5.8
2018-Jan-30 18:01N 29°34' W 090°35'3 5.9
2018-Jan-30 17:30N 29°34' W 090°31'  
Track history (hours):
 
Tides and Currents Weather Stations Pressure Air Temp Water Temp Dewpoint Dewpoint Depression Visibility Wind Speed Wind Dir Waves Ship Positions

Mr Wayne

Owner: Crosby Marine Transportation LLC, Golden Meadow, LA. More information available from US FCC via Universal Licensing System and Coast Guard Vessel Documentation Center.

Last reported at 2018-Feb-08 01:16 UTC. Time now 2018-Feb-19 08:06 UTC.
Position N 29°33' W 090°24'.
Warning: this ship's position is 11 days out of date.

Length 20 m; draft 2.8 m.

Type: Towing. MMSI: 367468610.

Date/timePositionNaut miles runAvg speedWind from/ knotsBaromVisibWave heightAir tempDewpointWater temp
2018-Feb-08 01:16N 29°33' W 090°24'4 3.0
2018-Feb-07 23:55N 29°34' W 090°29'3 7.1
2018-Feb-07 23:30N 29°34' W 090°32'3 6.9
2018-Feb-07 23:00N 29°35' W 090°36'3 5.9
2018-Feb-07 22:28N 29°36' W 090°39'1 2.5
2018-Feb-07 22:00N 29°36' W 090°40'0 0.0
2018-Feb-07 21:31N 29°36' W 090°40'  
2018-Feb-03 23:05N 29°34' W 090°30'1 6.1
2018-Feb-03 23:00N 29°34' W 090°30'3 5.9
2018-Feb-03 22:31N 29°34' W 090°33'3 5.2
2018-Feb-03 22:00N 29°35' W 090°36'2 3.0
2018-Feb-03 21:29N 29°35' W 090°38'3 5.3
2018-Feb-03 21:00N 29°36' W 090°41'2 3.6
2018-Feb-03 20:30N 29°36' W 090°43'2 2.9
2018-Feb-03 19:59N 29°34' W 090°43'4 2.9
2018-Feb-03 18:31N 29°30' W 090°43'3 5.6
2018-Feb-03 18:01N 29°27' W 090°43'3 5.2
2018-Feb-03 17:30N 29°25' W 090°44'0 0.0
2018-Feb-03 08:18N 29°24' W 090°44'2 6.0
2018-Feb-03 08:00N 29°26' W 090°43'8 5.2
2018-Feb-03 06:28N 29°34' W 090°43'3 5.7
2018-Feb-03 06:00N 29°37' W 090°42'3 6.4
2018-Feb-03 05:30N 29°35' W 090°39'4 6.3
2018-Feb-03 04:54N 29°34' W 090°34'9 0.4
2018-Feb-02 03:33N 29°33' W 090°24'0 7.6
2018-Feb-02 03:30N 29°33' W 090°24'4 7.6
2018-Feb-02 03:00N 29°34' W 090°28'4 7.7
2018-Feb-02 02:31N 29°34' W 090°33'4 6.9
2018-Feb-02 01:59N 29°35' W 090°37'3 7.2
2018-Feb-02 01:30N 29°36' W 090°40'0 0.1
2018-Feb-02 01:00N 29°36' W 090°40'2 3.9
2018-Feb-02 00:30N 29°36' W 090°43'3 6.6
2018-Feb-02 00:00N 29°33' W 090°42'4 7.3
2018-Feb-01 23:30N 29°29' W 090°43'4 7.3
2018-Feb-01 23:00N 29°26' W 090°43'1 0.2
2018-Feb-01 17:07N 29°24' W 090°44'1 5.7
2018-Feb-01 17:00N 29°25' W 090°43'3 5.8
2018-Feb-01 16:30N 29°28' W 090°43'3 5.8
2018-Feb-01 16:00N 29°31' W 090°43'2 4.9
2018-Feb-01 15:30N 29°33' W 090°42'1 2.3
2018-Feb-01 14:59N 29°34' W 090°43'7 4.5
2018-Feb-01 13:30N 29°32' W 090°50'3 5.5
2018-Feb-01 12:58N 29°33' W 090°54'3 5.7
2018-Feb-01 12:30N 29°34' W 090°56'6 0.2
2018-Jan-30 21:19N 29°32' W 090°50'3 6.1
2018-Jan-30 20:48N 29°32' W 090°46'2 5.5
2018-Jan-30 20:30N 29°33' W 090°45'2 4.0
2018-Jan-30 20:00N 29°34' W 090°43'2 4.1
2018-Jan-30 19:30N 29°36' W 090°43'2 4.1
2018-Jan-30 19:00N 29°36' W 090°40'2 4.5
2018-Jan-30 18:30N 29°35' W 090°38'3 5.8
2018-Jan-30 18:01N 29°34' W 090°35'3 5.9
2018-Jan-30 17:30N 29°34' W 090°31'  

Dump ship's entire track history